createdAt,value
2023-01-20T00:01:19.563Z,2.37
2023-01-20T00:03:46.056Z,3.17
2023-01-20T00:06:12.626Z,1.83
2023-01-20T00:08:39.083Z,3.10
2023-01-20T00:11:07.014Z,3.30
2023-01-20T00:13:34.319Z,3.60
2023-01-20T00:16:02.755Z,5.33
2023-01-20T00:18:29.494Z,5.03
2023-01-20T00:20:56.155Z,6.60
2023-01-20T00:23:22.576Z,5.80
2023-01-20T00:25:48.997Z,8.43
2023-01-20T00:28:16.840Z,6.97
2023-01-20T00:30:43.405Z,7.70
2023-01-20T00:33:09.802Z,6.03
2023-01-20T00:35:36.825Z,5.17
2023-01-20T00:38:03.216Z,5.73
2023-01-20T00:40:29.674Z,4.50
2023-01-20T00:42:56.303Z,4.23
2023-01-20T00:45:22.785Z,5.33
2023-01-20T00:47:49.163Z,2.73
2023-01-20T00:50:15.776Z,3.37
2023-01-20T00:52:42.239Z,3.70
2023-01-20T00:55:08.848Z,3.53
2023-01-20T00:57:35.308Z,3.90
2023-01-20T01:00:01.905Z,2.70
2023-01-20T01:02:28.438Z,4.67
2023-01-20T01:04:55.053Z,5.50
2023-01-20T01:07:21.544Z,4.53
2023-01-20T01:09:47.960Z,4.47
2023-01-20T01:12:14.433Z,4.33
2023-01-20T01:14:40.944Z,3.20
2023-01-20T01:17:07.373Z,3.63
2023-01-20T01:19:33.774Z,3.67
2023-01-20T01:22:00.213Z,3.43
2023-01-20T01:24:26.635Z,3.00
2023-01-20T01:26:53.393Z,4.70
2023-01-20T01:29:20.085Z,3.87
2023-01-20T01:31:46.566Z,4.20
2023-01-20T01:34:13.075Z,3.20
2023-01-20T01:36:39.469Z,3.77
2023-01-20T01:39:05.922Z,2.53
2023-01-20T01:41:32.582Z,3.03
2023-01-20T01:44:07.157Z,1.87
2023-01-20T01:46:33.750Z,2.50
2023-01-20T01:49:03.928Z,2.30
2023-01-20T01:51:33.707Z,4.30
2023-01-20T01:54:02.517Z,5.90
2023-01-20T01:56:29.864Z,4.33
2023-01-20T01:58:58.324Z,6.27
2023-01-20T02:01:25.926Z,4.63
2023-01-20T02:03:57.912Z,4.87
2023-01-20T02:06:25.647Z,5.30
2023-01-20T02:08:52.340Z,2.57
2023-01-20T02:11:20.526Z,3.03
2023-01-20T02:13:47.049Z,4.37
2023-01-20T02:16:16.605Z,3.10
2023-01-20T02:18:42.999Z,3.93
2023-01-20T02:21:09.519Z,5.93
2023-01-20T02:23:39.223Z,3.93
2023-01-20T02:26:05.675Z,4.30
2023-01-20T02:28:50.142Z,7.17
2023-01-20T02:31:25.493Z,3.03
2023-01-20T02:34:03.843Z,3.37
2023-01-20T02:36:56.456Z,4.17
2023-01-20T02:39:33.360Z,2.13
2023-01-20T02:41:59.832Z,4.10
2023-01-20T02:44:33.513Z,4.63
2023-01-20T02:47:02.622Z,2.80
2023-01-20T02:49:34.425Z,3.83
2023-01-20T02:52:30.724Z,3.00
2023-01-20T02:54:59.389Z,4.63
2023-01-20T02:57:29.313Z,6.80
2023-01-20T02:59:57.121Z,3.60
2023-01-20T03:02:25.872Z,2.70
2023-01-20T03:04:55.127Z,3.47
2023-01-20T03:07:23.235Z,3.60
2023-01-20T03:09:51.263Z,2.87
2023-01-20T03:12:22.285Z,3.33
2023-01-20T03:14:50.143Z,3.17
2023-01-20T03:17:16.983Z,5.00
2023-01-20T03:19:43.810Z,2.03
2023-01-20T03:22:10.344Z,2.50
2023-01-20T03:24:37.826Z,2.53
2023-01-20T03:27:04.853Z,2.77
2023-01-20T03:29:32.549Z,2.97
2023-01-20T03:32:00.241Z,3.70
2023-01-20T03:34:28.184Z,5.17
2023-01-20T03:36:54.824Z,4.53
2023-01-20T03:39:22.932Z,2.37
2023-01-20T03:41:52.417Z,2.97
2023-01-20T03:44:24.833Z,2.90
2023-01-20T03:46:57.226Z,2.50
2023-01-20T03:49:27.609Z,2.77
2023-01-20T03:51:54.043Z,4.43
2023-01-20T03:54:23.821Z,4.00
2023-01-20T03:57:10.542Z,5.33
2023-01-20T03:59:38.568Z,3.63
2023-01-20T04:02:06.552Z,3.70
2023-01-20T04:04:34.689Z,2.73
2023-01-20T04:07:01.403Z,3.67
2023-01-20T04:09:31.650Z,6.27
2023-01-20T04:11:58.934Z,3.33
2023-01-20T04:14:25.434Z,3.03
2023-01-20T04:16:53.461Z,2.43
2023-01-20T04:19:19.919Z,4.47
2023-01-20T04:21:49.582Z,3.03
2023-01-20T04:24:15.953Z,5.47
2023-01-20T04:26:42.616Z,2.80
2023-01-20T04:29:12.002Z,3.57
2023-01-20T04:31:39.391Z,3.75
2023-01-20T04:34:06.071Z,4.23
2023-01-20T04:36:33.978Z,3.50
2023-01-20T04:39:00.391Z,3.20
2023-01-20T04:41:26.868Z,2.90
2023-01-20T04:43:53.373Z,2.67
2023-01-20T04:46:19.857Z,4.90
2023-01-20T04:48:46.360Z,3.57
2023-01-20T04:51:12.876Z,2.37
2023-01-20T04:53:39.546Z,5.30
2023-01-20T04:56:10.852Z,5.23
2023-01-20T04:58:37.521Z,6.20
2023-01-20T05:01:04.009Z,4.53
2023-01-20T05:03:30.475Z,4.90
2023-01-20T05:05:56.963Z,5.10
2023-01-20T05:08:23.589Z,4.17
2023-01-20T05:10:50.029Z,5.00
2023-01-20T05:13:16.502Z,5.33
2023-01-20T05:15:43.889Z,2.77
2023-01-20T05:18:10.407Z,4.70
2023-01-20T05:20:36.936Z,3.23
2023-01-20T05:23:03.726Z,4.50
2023-01-20T05:25:30.259Z,5.37
2023-01-20T05:27:58.023Z,6.23
2023-01-20T05:30:24.448Z,6.50
2023-01-20T05:32:51.897Z,4.77
2023-01-20T05:35:18.544Z,8.50
2023-01-20T05:37:45.103Z,9.50
2023-01-20T05:40:12.008Z,6.70
2023-01-20T05:42:38.601Z,5.57
2023-01-20T05:45:05.273Z,10.17
2023-01-20T05:47:31.709Z,5.23
2023-01-20T05:49:58.215Z,3.10
2023-01-20T05:52:24.663Z,3.60
2023-01-20T05:54:51.148Z,4.50
2023-01-20T05:57:18.374Z,4.57
2023-01-20T05:59:47.687Z,4.83
2023-01-20T06:02:18.647Z,5.93
2023-01-20T06:07:13.642Z,9.60
2023-01-20T06:09:40.183Z,9.83
2023-01-20T06:12:06.670Z,11.80
2023-01-20T06:14:33.069Z,8.70
2023-01-20T06:16:59.727Z,8.80
2023-01-20T06:19:26.239Z,6.57
2023-01-20T06:21:53.537Z,4.67
2023-01-20T06:24:20.058Z,8.47
2023-01-20T06:26:46.541Z,7.67
2023-01-20T06:29:12.930Z,6.60
2023-01-20T06:31:39.791Z,7.53
2023-01-20T06:34:21.478Z,5.57
2023-01-20T06:36:47.952Z,7.87
2023-01-20T06:39:14.419Z,6.27
2023-01-20T06:41:40.840Z,6.43
2023-01-20T06:44:07.287Z,6.20
2023-01-20T06:46:33.829Z,7.53
2023-01-20T06:49:00.891Z,5.03
2023-01-20T06:51:28.811Z,11.63
2023-01-20T06:53:55.590Z,31.23
2023-01-20T06:56:22.372Z,29.63
2023-01-20T06:58:48.957Z,28.57
2023-01-20T07:01:18.498Z,23.33
2023-01-20T07:03:45.089Z,24.03
2023-01-20T07:06:20.322Z,24.30
2023-01-20T07:08:46.897Z,20.97
2023-01-20T07:11:13.481Z,15.70
2023-01-20T07:13:40.088Z,21.40
2023-01-20T07:16:08.875Z,24.87
2023-01-20T07:18:36.791Z,24.30
2023-01-20T07:21:03.654Z,26.50
2023-01-20T07:23:32.101Z,29.83
2023-01-20T07:26:02.470Z,30.90
2023-01-20T07:28:30.096Z,27.17
2023-01-20T07:30:56.757Z,26.63
2023-01-20T07:33:23.354Z,29.63
2023-01-20T07:35:53.496Z,33.10
2023-01-20T07:38:20.056Z,48.30
2023-01-20T07:40:46.509Z,38.03
2023-01-20T07:43:13.107Z,32.87
2023-01-20T07:45:39.610Z,25.87
2023-01-20T07:48:07.827Z,7.60
2023-01-20T07:50:37.394Z,10.70
2023-01-20T07:53:04.072Z,13.73
2023-01-20T07:55:30.699Z,10.03
2023-01-20T07:57:58.756Z,7.07
2023-01-20T08:00:25.260Z,12.63
2023-01-20T08:02:51.644Z,16.97
2023-01-20T08:05:18.266Z,12.67
2023-01-20T08:07:44.892Z,13.97
2023-01-20T08:10:11.430Z,18.07
2023-01-20T08:12:37.871Z,20.40
2023-01-20T08:15:04.688Z,18.57
2023-01-20T08:17:31.282Z,18.10
2023-01-20T08:19:57.708Z,14.60
2023-01-20T08:22:25.503Z,11.07
2023-01-20T08:24:51.928Z,11.57
2023-01-20T08:27:18.323Z,15.43
2023-01-20T08:29:44.832Z,12.67
2023-01-20T08:32:11.292Z,11.17
2023-01-20T08:34:37.739Z,9.43
2023-01-20T08:37:04.223Z,10.17
2023-01-20T08:39:30.671Z,12.03
2023-01-20T08:41:57.107Z,10.63
2023-01-20T08:44:23.588Z,10.23
2023-01-20T08:46:52.637Z,10.97
2023-01-20T08:49:21.758Z,6.67
2023-01-20T08:51:48.418Z,8.43
2023-01-20T08:54:15.446Z,6.30
2023-01-20T08:56:42.165Z,8.00
2023-01-20T08:59:08.639Z,10.10
2023-01-20T09:01:38.307Z,7.60
2023-01-20T09:04:07.166Z,8.80
2023-01-20T09:06:38.565Z,9.50
2023-01-20T09:09:05.247Z,8.03
2023-01-20T09:11:31.836Z,10.13
2023-01-20T09:13:58.386Z,14.03
2023-01-20T09:16:24.873Z,8.50
2023-01-20T09:18:51.417Z,9.10
2023-01-20T09:21:17.963Z,9.03
2023-01-20T09:23:47.825Z,8.43
2023-01-20T09:26:26.138Z,8.70
2023-01-20T09:29:09.718Z,8.60
2023-01-20T09:31:41.061Z,7.87
2023-01-20T09:34:07.677Z,7.70
2023-01-20T09:36:34.186Z,10.33
2023-01-20T09:39:19.221Z,8.93
2023-01-20T09:42:20.000Z,10.77
2023-01-20T09:44:46.385Z,8.32
2023-01-20T09:47:25.883Z,9.60
2023-01-20T09:50:14.429Z,9.00
2023-01-20T09:53:00.092Z,8.93
2023-01-20T09:55:30.400Z,8.23
2023-01-20T09:58:05.994Z,10.27
2023-01-20T10:00:33.778Z,9.27
2023-01-20T10:03:06.705Z,9.80
2023-01-20T10:05:37.274Z,10.40
2023-01-20T10:08:09.651Z,10.73
2023-01-20T10:11:02.296Z,9.50
2023-01-20T10:13:41.091Z,6.83
2023-01-20T10:16:09.921Z,8.07
2023-01-20T10:18:39.337Z,6.97
2023-01-20T10:21:12.425Z,7.33
2023-01-20T10:23:49.471Z,6.03
2023-01-20T10:26:18.919Z,7.00
2023-01-20T10:29:05.680Z,7.53
2023-01-20T10:31:34.803Z,7.67
2023-01-20T10:34:12.063Z,9.77
2023-01-20T10:36:40.194Z,7.93
2023-01-20T10:39:15.602Z,8.40
2023-01-20T10:41:45.450Z,13.30
2023-01-20T10:44:13.245Z,10.03
2023-01-20T10:46:48.876Z,9.30
2023-01-20T10:49:21.245Z,7.17
2023-01-20T10:51:54.113Z,10.13
2023-01-20T10:54:35.745Z,9.63
2023-01-20T10:57:03.991Z,7.90
2023-01-20T10:59:40.325Z,7.37
2023-01-20T11:02:40.025Z,7.67
2023-01-20T11:05:20.878Z,6.77
2023-01-20T11:07:47.827Z,7.07
2023-01-20T11:10:15.775Z,12.50
2023-01-20T11:12:43.454Z,8.97
2023-01-20T11:15:15.977Z,9.00
2023-01-20T11:17:42.460Z,7.73
2023-01-20T11:20:14.674Z,10.90
2023-01-20T11:22:45.215Z,8.23
2023-01-20T11:25:22.543Z,8.10
2023-01-20T11:27:49.330Z,12.20
2023-01-20T11:30:32.407Z,9.47
2023-01-20T11:33:08.055Z,11.63
2023-01-20T11:35:34.733Z,11.43
2023-01-20T11:38:20.647Z,10.20
2023-01-20T11:40:52.682Z,10.00
2023-01-20T11:43:29.199Z,11.87
2023-01-20T11:46:16.263Z,8.70
2023-01-20T11:48:43.851Z,9.37
2023-01-20T11:51:25.275Z,9.67
2023-01-20T11:54:05.992Z,10.23
2023-01-20T11:56:35.001Z,9.15
2023-01-20T11:59:03.274Z,9.73
2023-01-20T12:01:31.181Z,10.87
2023-01-20T12:04:03.626Z,10.10
2023-01-20T12:06:32.870Z,8.93
2023-01-20T12:09:15.553Z,9.37
2023-01-20T12:12:00.583Z,9.40
2023-01-20T12:14:32.804Z,10.63
2023-01-20T12:16:59.265Z,7.23
2023-01-20T12:19:30.047Z,10.77
2023-01-20T12:21:59.923Z,9.63
2023-01-20T12:24:35.429Z,11.97
2023-01-20T12:27:16.080Z,8.70
2023-01-20T12:29:45.992Z,10.70
2023-01-20T12:32:12.904Z,10.00
2023-01-20T12:34:39.429Z,8.80
2023-01-20T12:37:08.806Z,9.40
2023-01-20T12:39:42.746Z,8.00
2023-01-20T12:42:18.213Z,7.73
2023-01-20T12:44:48.501Z,8.83
2023-01-20T12:47:17.640Z,9.32
2023-01-20T12:50:03.105Z,7.87
2023-01-20T12:52:42.015Z,12.03
2023-01-20T12:55:14.535Z,12.23
2023-01-20T12:57:41.100Z,14.10
2023-01-20T13:00:19.423Z,9.57
2023-01-20T13:03:04.975Z,9.30
2023-01-20T13:05:34.547Z,7.53
2023-01-20T13:08:09.799Z,9.23
2023-01-20T13:10:39.664Z,8.87
2023-01-20T13:13:17.865Z,8.53
2023-01-20T13:15:44.330Z,10.17
2023-01-20T13:18:29.252Z,8.57
2023-01-20T13:20:55.949Z,10.80
2023-01-20T13:23:27.129Z,9.30
2023-01-20T13:28:24.138Z,12.30
2023-01-20T13:30:53.940Z,10.65
2023-01-20T13:33:29.610Z,8.00
2023-01-20T13:35:57.094Z,7.20
2023-01-20T13:38:24.794Z,9.67
2023-01-20T13:40:52.699Z,8.50
2023-01-20T13:43:22.311Z,7.77
2023-01-20T13:45:49.068Z,8.53
2023-01-20T13:48:15.650Z,8.47
2023-01-20T13:50:42.864Z,9.10
2023-01-20T13:53:14.390Z,10.27
2023-01-20T13:55:40.806Z,7.03
2023-01-20T13:58:13.433Z,8.47
2023-01-20T14:00:39.882Z,8.33
2023-01-20T14:03:23.001Z,9.37
2023-01-20T14:05:49.891Z,12.87
2023-01-20T14:08:16.675Z,9.40
2023-01-20T14:10:43.432Z,11.20
2023-01-20T14:13:18.147Z,9.00
2023-01-20T14:15:48.612Z,8.53
2023-01-20T14:18:16.277Z,7.18
2023-01-20T14:20:43.388Z,6.87
2023-01-20T14:23:24.599Z,7.60
2023-01-20T14:26:01.695Z,7.22
2023-01-20T14:28:28.146Z,9.60
2023-01-20T14:31:14.417Z,8.57
2023-01-20T14:33:45.261Z,7.67
2023-01-20T14:36:15.838Z,7.78
2023-01-20T14:38:56.348Z,10.05
2023-01-20T14:43:50.004Z,7.33
2023-01-20T14:46:16.843Z,10.10
2023-01-20T14:48:43.489Z,8.33
2023-01-20T14:51:12.180Z,7.20
2023-01-20T14:53:39.589Z,8.77
2023-01-20T14:56:07.679Z,8.13
2023-01-20T14:58:35.002Z,8.37
2023-01-20T15:01:03.007Z,8.47
2023-01-20T15:03:30.118Z,7.43
2023-01-20T15:06:00.394Z,10.07
2023-01-20T15:08:32.827Z,9.97
2023-01-20T15:11:14.530Z,10.00
2023-01-20T15:13:43.518Z,10.80
2023-01-20T15:16:12.844Z,11.53
2023-01-20T15:18:39.802Z,10.43
2023-01-20T15:21:18.852Z,8.67
2023-01-20T15:23:52.295Z,8.10
2023-01-20T15:26:27.510Z,8.53
2023-01-20T15:28:54.666Z,8.00
2023-01-20T15:31:21.442Z,9.87
2023-01-20T15:33:48.209Z,7.67
2023-01-20T15:36:36.959Z,8.57
2023-01-20T15:39:03.526Z,10.63
2023-01-20T15:41:29.929Z,9.40
2023-01-20T15:43:56.437Z,9.70
2023-01-20T15:46:24.480Z,10.60
2023-01-20T15:48:50.976Z,10.93
2023-01-20T15:51:19.120Z,12.47
2023-01-20T15:53:45.937Z,12.73
2023-01-20T15:56:23.880Z,13.47
2023-01-20T15:58:50.736Z,12.33
2023-01-20T16:01:18.444Z,12.33
2023-01-20T16:03:45.176Z,15.37
2023-01-20T16:06:12.420Z,14.47
2023-01-20T16:08:39.184Z,15.97
2023-01-20T16:11:06.055Z,21.00
2023-01-20T16:13:32.545Z,17.73
2023-01-20T16:15:59.137Z,16.63
2023-01-20T16:18:25.669Z,12.70
2023-01-20T16:20:52.186Z,16.83
2023-01-20T16:23:18.810Z,16.60
2023-01-20T16:25:45.294Z,15.70
2023-01-20T16:28:18.411Z,11.97
2023-01-20T16:30:45.134Z,13.33
2023-01-20T16:33:15.320Z,12.70
2023-01-20T16:35:42.192Z,11.27
2023-01-20T16:38:15.440Z,9.70
2023-01-20T16:40:45.302Z,11.80
2023-01-20T16:43:12.702Z,13.33
2023-01-20T16:45:39.194Z,11.70
2023-01-20T16:48:07.087Z,12.40
2023-01-20T16:50:33.506Z,14.70
2023-01-20T16:52:59.984Z,8.40
2023-01-20T16:55:26.647Z,10.63
2023-01-20T16:57:53.373Z,9.17
2023-01-20T17:00:20.714Z,11.40
2023-01-20T17:02:51.602Z,15.37
2023-01-20T17:05:22.737Z,13.07
2023-01-20T17:07:49.997Z,9.57
2023-01-20T17:10:17.435Z,10.57
2023-01-20T17:12:45.006Z,28.33
2023-01-20T17:15:12.276Z,15.83
2023-01-20T17:17:38.797Z,12.37
2023-01-20T17:20:11.969Z,13.90
2023-01-20T17:22:39.236Z,15.53
2023-01-20T17:25:07.132Z,13.20
2023-01-20T17:27:34.123Z,13.77
2023-01-20T17:30:01.154Z,12.23
2023-01-20T17:32:27.587Z,14.83
2023-01-20T17:34:53.982Z,13.30
2023-01-20T17:37:20.509Z,9.57
2023-01-20T17:39:47.755Z,7.10
2023-01-20T17:42:16.121Z,8.20
2023-01-20T17:44:44.030Z,8.87
2023-01-20T17:47:11.179Z,10.77
2023-01-20T17:49:37.694Z,6.23
2023-01-20T17:52:04.306Z,9.67
2023-01-20T17:54:30.799Z,7.03
2023-01-20T17:56:57.282Z,8.37
2023-01-20T17:59:26.165Z,7.23
2023-01-20T18:01:52.657Z,7.63
2023-01-20T18:04:19.212Z,8.40
2023-01-20T18:06:45.745Z,8.30
2023-01-20T18:09:13.961Z,7.17
2023-01-20T18:11:40.861Z,7.13
2023-01-20T18:14:07.571Z,10.87
2023-01-20T18:16:35.665Z,8.83
2023-01-20T18:19:02.480Z,7.20
2023-01-20T18:21:30.286Z,8.10
2023-01-20T18:23:57.235Z,8.53
2023-01-20T18:26:24.719Z,10.63
2023-01-20T18:28:54.628Z,10.30
2023-01-20T18:31:21.825Z,7.80
2023-01-20T18:33:49.526Z,9.73
2023-01-20T18:36:23.842Z,8.50
2023-01-20T18:38:54.095Z,10.10
2023-01-20T18:41:20.796Z,12.02
2023-01-20T18:43:47.623Z,13.20
2023-01-20T18:46:14.270Z,9.83
2023-01-20T18:48:41.445Z,10.93
2023-01-20T18:51:10.315Z,10.90
2023-01-20T18:53:37.165Z,10.87
2023-01-20T18:56:04.563Z,14.13
2023-01-20T18:58:31.086Z,9.73
2023-01-20T19:01:04.420Z,10.67
2023-01-20T19:03:31.085Z,14.10
2023-01-20T19:06:08.060Z,14.00
2023-01-20T19:08:34.752Z,12.63
2023-01-20T19:11:01.874Z,11.47
2023-01-20T19:13:28.383Z,9.00
2023-01-20T19:15:55.068Z,11.87
2023-01-20T19:18:21.514Z,14.10
2023-01-20T19:20:48.045Z,12.57
2023-01-20T19:23:14.641Z,14.10
2023-01-20T19:25:41.066Z,12.10
2023-01-20T19:28:09.167Z,10.97
2023-01-20T19:30:36.102Z,10.60
2023-01-20T19:33:02.669Z,9.30
2023-01-20T19:35:31.558Z,10.13
2023-01-20T19:37:57.975Z,12.37
2023-01-20T19:40:24.387Z,19.97
2023-01-20T19:42:52.498Z,14.37
2023-01-20T19:45:19.191Z,10.33
2023-01-20T19:47:45.680Z,9.33
2023-01-20T19:50:12.192Z,10.70
2023-01-20T19:52:38.601Z,11.60
2023-01-20T19:55:05.664Z,13.30
2023-01-20T19:57:32.133Z,13.47
2023-01-20T19:59:58.930Z,11.30
2023-01-20T20:02:27.491Z,11.47
2023-01-20T20:04:53.973Z,13.03
2023-01-20T20:07:20.480Z,11.07
2023-01-20T20:09:46.995Z,12.87
2023-01-20T20:12:13.702Z,10.70
2023-01-20T20:14:40.279Z,9.73
2023-01-20T20:17:06.833Z,9.30
2023-01-20T20:19:33.244Z,9.03
2023-01-20T20:21:59.669Z,10.70
2023-01-20T20:24:26.103Z,12.37
2023-01-20T20:26:52.638Z,11.27
2023-01-20T20:29:19.469Z,13.27
2023-01-20T20:31:46.063Z,13.03
2023-01-20T20:34:14.037Z,14.73
2023-01-20T20:36:40.566Z,13.73
2023-01-20T20:39:07.891Z,16.33
2023-01-20T20:41:36.483Z,11.37
2023-01-20T20:44:03.516Z,9.70
2023-01-20T20:46:29.985Z,12.93
2023-01-20T20:48:59.119Z,9.67
2023-01-20T20:51:25.893Z,8.90
2023-01-20T20:53:56.267Z,11.07
2023-01-20T20:56:23.163Z,7.35
2023-01-20T20:59:00.921Z,8.37
2023-01-20T21:01:28.432Z,9.97
2023-01-20T21:03:57.512Z,9.27
2023-01-20T21:06:24.128Z,11.50
2023-01-20T21:08:50.633Z,9.63
2023-01-20T21:11:17.137Z,11.23
2023-01-20T21:13:44.436Z,8.17
2023-01-20T21:16:13.980Z,10.13
2023-01-20T21:18:41.179Z,7.77
2023-01-20T21:21:08.927Z,11.97
2023-01-20T21:23:35.436Z,7.77
2023-01-20T21:26:06.033Z,12.57
2023-01-20T21:28:34.292Z,12.98
2023-01-20T21:31:00.881Z,16.83
2023-01-20T21:33:27.296Z,13.90
2023-01-20T21:35:54.117Z,17.93
2023-01-20T21:38:20.587Z,14.47
2023-01-20T21:40:59.795Z,15.57
2023-01-20T21:43:48.923Z,8.00
2023-01-20T21:46:15.694Z,13.03
2023-01-20T21:49:01.072Z,14.47
2023-01-20T21:51:46.110Z,10.60
2023-01-20T21:54:12.526Z,10.93
2023-01-20T21:56:39.043Z,13.67
2023-01-20T21:59:05.722Z,11.23
2023-01-20T22:01:32.155Z,10.23
2023-01-20T22:03:58.865Z,11.90
2023-01-20T22:06:25.356Z,10.30
2023-01-20T22:08:51.900Z,11.07
2023-01-20T22:11:18.483Z,13.93
2023-01-20T22:13:44.912Z,10.67
2023-01-20T22:16:11.401Z,12.20
2023-01-20T22:18:37.835Z,9.37
2023-01-20T22:21:05.188Z,9.87
2023-01-20T22:23:32.367Z,8.80
2023-01-20T22:25:59.231Z,9.30
2023-01-20T22:28:25.692Z,10.50
2023-01-20T22:30:52.171Z,9.67
2023-01-20T22:33:18.612Z,9.07
2023-01-20T22:35:45.066Z,8.43
2023-01-20T22:38:11.512Z,14.10
2023-01-20T22:40:38.013Z,7.67
2023-01-20T22:43:04.525Z,8.20
2023-01-20T22:45:30.991Z,10.20
2023-01-20T22:47:57.440Z,8.93
2023-01-20T22:50:23.878Z,9.20
2023-01-20T22:52:50.331Z,7.50
2023-01-20T22:55:16.785Z,8.20
2023-01-20T22:57:43.225Z,8.73
2023-01-20T23:00:12.173Z,8.03
2023-01-20T23:02:39.081Z,7.30
2023-01-20T23:05:05.691Z,6.53
2023-01-20T23:07:32.111Z,8.30
2023-01-20T23:09:58.671Z,8.03
2023-01-20T23:12:25.151Z,5.47
2023-01-20T23:15:00.657Z,7.87
2023-01-20T23:17:27.517Z,6.60
2023-01-20T23:19:54.415Z,14.00
2023-01-20T23:22:20.850Z,11.43
2023-01-20T23:24:47.458Z,8.63
2023-01-20T23:27:14.055Z,7.70
2023-01-20T23:29:40.492Z,6.37
2023-01-20T23:32:07.079Z,7.10
2023-01-20T23:34:33.526Z,7.87
2023-01-20T23:36:59.970Z,7.83
2023-01-20T23:39:26.527Z,5.37
2023-01-20T23:41:54.856Z,7.43
2023-01-20T23:44:21.304Z,6.43
2023-01-20T23:46:47.740Z,7.83
2023-01-20T23:49:14.167Z,6.63
2023-01-20T23:51:40.603Z,5.73
2023-01-20T23:54:08.466Z,9.10
2023-01-20T23:56:35.201Z,7.50
2023-01-20T23:59:01.746Z,10.70
